Time;durP1;ratioP1;P1;durP2;ratioP2;P2;SDS_P1;SDS_P2;PMS_P1;PMS_P2;Temp;Humidity;BMP_temperature;BMP_pressure;BME280_temperature;BME280_humidity;BME280_pressure;Samples;Min_cycle;Max_cycle;Signal;HPM_P1;HPM_P2
2021/07/24 00:01:17;;;;;;;;;;;;;;;19.22;61.57;95965.34;5076672;28;20436;-79
2021/07/24 00:03:43;;;;;;;;;;;;;;;19.21;61.31;95963.78;5097719;28;20059;-79
2021/07/24 00:06:09;;;;;;;;;;;;;;;19.20;61.48;95951.53;5083539;28;20390;-79
2021/07/24 00:08:34;;;;;;;;;;;;;;;19.19;61.52;95957.13;5106360;28;19986;-79
2021/07/24 00:11:01;;;;;;;;;;;;;;;19.17;61.43;95949.47;5103359;28;20022;-79
2021/07/24 00:13:27;;;;;;;;;;;;;;;19.18;61.22;95945.72;5061356;28;19980;-79
2021/07/24 00:15:53;;;;;;;;;;;;;;;19.16;61.51;95944.41;5100754;28;20530;-79
2021/07/24 00:18:19;;;;;;;;;;;;;;;19.13;62.24;95942.31;5110372;28;20424;-79
2021/07/24 00:20:44;;;;;;;;;;;;;;;19.10;62.10;95942.91;5081723;28;20079;-79
2021/07/24 00:23:11;;;;;;;;;;;;;;;19.07;61.63;95944.28;5082944;28;20055;-79
2021/07/24 00:25:37;;;;;;;;;;;;;;;19.05;61.71;95939.22;5109733;28;19964;-79
2021/07/24 00:28:04;;;;;;;;;;;;;;;19.03;62.33;95944.03;5085583;28;19969;-79
2021/07/24 00:30:30;;;;;;;;;;;;;;;19.02;62.23;95946.97;5105632;28;19968;-79
2021/07/24 00:32:56;;;;;;;;;;;;;;;18.97;62.58;95944.38;5101126;28;20087;-79
2021/07/24 00:35:22;;;;;;;;;;;;;;;18.94;62.60;95943.09;5090458;28;19979;-79
2021/07/24 00:37:54;;;;;;;;;;;;;;;18.91;62.77;95938.31;5111071;28;19968;-79
2021/07/24 00:40:21;;;;;;;;;;;;;;;18.89;63.25;95937.03;5086709;28;20025;-79
2021/07/24 00:42:49;;;;;;;;;;;;;;;18.85;63.38;95924.31;5107170;28;19969;-79
2021/07/24 00:45:15;;;;;;;;;;;;;;;18.82;63.06;95916.91;5073007;28;19983;-78
2021/07/24 00:47:43;;;;;;;;;;;;;;;18.79;63.31;95911.38;5098854;28;19978;-82
2021/07/24 00:50:12;;;;;;;;;;;;;;;18.77;63.42;95905.50;5084640;28;20435;-79
2021/07/24 00:52:41;;;;;;;;;;;;;;;18.75;62.97;95903.16;5113027;28;19964;-81
2021/07/24 00:55:07;;;;;;;;;;;;;;;18.74;63.38;95906.09;5107963;28;19972;-80
2021/07/24 00:57:34;;;;;;;;;;;;;;;18.72;63.84;95908.25;5087339;28;20444;-80
2021/07/24 01:00:00;;;;;;;;;;;;;;;18.70;63.49;95902.41;5109708;28;20043;-80
2021/07/24 01:02:26;;;;;;;;;;;;;;;18.65;63.82;95896.09;5070443;28;20415;-80
2021/07/24 01:04:52;;;;;;;;;;;;;;;18.62;64.00;95901.94;5102504;28;19968;-81
2021/07/24 01:07:18;;;;;;;;;;;;;;;18.59;63.92;95899.09;5112487;28;19990;-80
2021/07/24 01:09:44;;;;;;;;;;;;;;;18.57;64.15;95893.25;5100628;28;19983;-80
2021/07/24 01:12:10;;;;;;;;;;;;;;;18.53;64.59;95898.34;5092531;28;19972;-81
2021/07/24 01:14:36;;;;;;;;;;;;;;;18.50;64.04;95885.63;5091674;28;19972;-81
2021/07/24 01:17:02;;;;;;;;;;;;;;;18.49;64.25;95893.88;5091095;28;19992;-81
2021/07/24 01:19:28;;;;;;;;;;;;;;;18.45;64.83;95891.00;5091431;28;19988;-80
2021/07/24 01:21:55;;;;;;;;;;;;;;;18.41;64.44;95882.78;5065123;28;19975;-80
2021/07/24 01:24:21;;;;;;;;;;;;;;;18.38;64.83;95891.31;5085211;28;19973;-80
2021/07/24 01:26:47;;;;;;;;;;;;;;;18.34;64.45;95890.31;5085691;28;19976;-81
2021/07/24 01:29:14;;;;;;;;;;;;;;;18.33;64.73;95896.69;5087097;28;19980;-81
2021/07/24 01:31:41;;;;;;;;;;;;;;;18.33;64.68;95893.22;5087935;28;19964;-81
2021/07/24 01:34:06;;;;;;;;;;;;;;;18.33;64.97;95901.19;5086054;28;19965;-81
2021/07/24 01:36:32;;;;;;;;;;;;;;;18.30;65.14;95907.84;5083472;28;20448;-81
2021/07/24 01:38:58;;;;;;;;;;;;;;;18.30;65.01;95899.91;5081889;28;20039;-80
2021/07/24 01:41:24;;;;;;;;;;;;;;;18.30;65.25;95896.47;5082715;28;20047;-81
2021/07/24 01:43:50;;;;;;;;;;;;;;;18.29;65.02;95898.31;5086581;28;19975;-81
2021/07/24 01:46:16;;;;;;;;;;;;;;;18.31;65.02;95906.81;5084249;28;20429;-81
2021/07/24 01:48:52;;;;;;;;;;;;;;;18.29;65.13;95914.25;5085760;28;20343;-80
2021/07/24 01:54:13;;;;;;;;;;;;;;;18.28;65.57;95936.53;5084894;28;20433;-80
2021/07/24 01:56:39;;;;;;;;;;;;;;;18.29;64.94;95937.34;5087912;28;20398;-80
2021/07/24 01:59:05;;;;;;;;;;;;;;;18.29;65.24;95950.59;5085175;28;19972;-80
2021/07/24 02:01:32;;;;;;;;;;;;;;;18.28;65.29;95946.38;5067824;28;19972;-81
2021/07/24 02:04:04;;;;;;;;;;;;;;;18.28;65.04;95946.38;5066649;28;19972;-81
2021/07/24 02:06:30;;;;;;;;;;;;;;;18.28;65.28;95944.50;5082689;28;19976;-81
2021/07/24 02:08:56;;;;;;;;;;;;;;;18.26;65.73;95944.78;5066567;28;20071;-80
2021/07/24 02:11:22;;;;;;;;;;;;;;;18.25;65.04;95945.06;5067759;28;19976;-81
2021/07/24 02:13:49;;;;;;;;;;;;;;;18.26;65.37;95944.00;5081755;28;19976;-80
2021/07/24 02:16:15;;;;;;;;;;;;;;;18.24;65.08;95944.25;5080905;28;20007;-81
2021/07/24 02:18:41;;;;;;;;;;;;;;;18.24;65.59;95938.16;5063464;28;19976;-81
2021/07/24 02:21:08;;;;;;;;;;;;;;;18.25;65.47;95942.44;5062301;28;19993;-81
2021/07/24 02:23:34;;;;;;;;;;;;;;;18.25;66.03;95945.88;5068779;28;19976;-81
2021/07/24 02:26:00;;;;;;;;;;;;;;;18.23;66.06;95944.56;5064589;28;20507;-81
2021/07/24 02:28:26;;;;;;;;;;;;;;;18.23;66.02;95937.38;5059671;28;20018;-81
2021/07/24 02:30:52;;;;;;;;;;;;;;;18.23;66.37;95945.34;5062963;28;19982;-81
2021/07/24 02:33:18;;;;;;;;;;;;;;;18.21;66.28;95942.19;5050886;28;19974;-81
2021/07/24 02:35:45;;;;;;;;;;;;;;;18.22;66.70;95942.97;5061044;28;19972;-80
2021/07/24 02:38:11;;;;;;;;;;;;;;;18.22;66.04;95945.63;5061852;28;20452;-81
2021/07/24 02:40:39;;;;;;;;;;;;;;;18.23;66.50;95940.03;5064073;28;19985;-82
2021/07/24 02:43:06;;;;;;;;;;;;;;;18.23;66.65;95940.03;5066299;28;19984;-83
2021/07/24 02:45:32;;;;;;;;;;;;;;;18.23;66.85;95940.03;5062849;28;19973;-79
2021/07/24 02:47:57;;;;;;;;;;;;;;;18.24;66.33;95938.97;5060345;28;19988;-78
2021/07/24 02:50:23;;;;;;;;;;;;;;;18.26;66.92;95930.72;5065070;28;20060;-78
2021/07/24 02:52:49;;;;;;;;;;;;;;;18.26;67.45;95923.53;5066517;28;19995;-78
2021/07/24 02:55:16;;;;;;;;;;;;;;;18.26;66.67;95910.28;5060724;28;19973;-79
2021/07/24 02:57:42;;;;;;;;;;;;;;;18.27;66.68;95903.13;5068068;28;19965;-79
2021/07/24 03:00:08;;;;;;;;;;;;;;;18.28;67.69;95896.72;5067741;28;19981;-80
2021/07/24 03:02:34;;;;;;;;;;;;;;;18.28;66.88;95885.34;5064679;28;19973;-79
2021/07/24 03:05:00;;;;;;;;;;;;;;;18.28;66.92;95891.41;5067426;28;20023;-79
2021/07/24 03:07:26;;;;;;;;;;;;;;;18.26;66.96;95878.44;5037476;28;20056;-79
2021/07/24 03:09:52;;;;;;;;;;;;;;;18.28;66.85;95885.34;5059166;28;20487;-80
2021/07/24 03:12:18;;;;;;;;;;;;;;;18.29;67.08;95886.91;5053075;28;20011;-82
2021/07/24 03:14:44;;;;;;;;;;;;;;;18.28;67.28;95882.69;5052900;28;20318;-81
2021/07/24 03:17:10;;;;;;;;;;;;;;;18.26;67.09;95880.28;5093035;28;20478;-82
2021/07/24 03:19:36;;;;;;;;;;;;;;;18.26;67.29;95880.28;5103364;28;20351;-82
2021/07/24 03:22:02;;;;;;;;;;;;;;;18.26;67.25;95882.94;5100081;28;19972;-81
2021/07/24 03:24:28;;;;;;;;;;;;;;;18.25;66.76;95884.81;5066945;28;20405;-82
2021/07/24 03:26:54;;;;;;;;;;;;;;;18.24;66.98;95880.56;5079460;28;19968;-82
2021/07/24 03:29:20;;;;;;;;;;;;;;;18.22;67.48;95887.22;5066746;28;20027;-82
2021/07/24 03:31:46;;;;;;;;;;;;;;;18.21;66.87;95889.09;5085652;28;19975;-82
2021/07/24 03:34:12;;;;;;;;;;;;;;;18.19;66.63;95893.13;5051265;28;19969;-82
2021/07/24 03:36:38;;;;;;;;;;;;;;;18.13;67.53;95884.41;5067830;28;19969;-82
2021/07/24 03:39:04;;;;;;;;;;;;;;;18.04;67.27;95894.81;5070016;28;20391;-82
2021/07/24 03:41:34;;;;;;;;;;;;;;;18.00;67.72;95895.66;5078580;28;20367;-83
2021/07/24 03:44:00;;;;;;;;;;;;;;;17.97;68.07;95894.34;5070518;28;19976;-82
2021/07/24 03:46:27;;;;;;;;;;;;;;;17.99;67.58;95894.06;5100394;28;19991;-82
2021/07/24 03:48:54;;;;;;;;;;;;;;;17.99;68.56;95896.72;5106319;28;19969;-82
2021/07/24 03:51:20;;;;;;;;;;;;;;;17.97;67.98;95897.00;5085970;28;19991;-82
2021/07/24 03:53:46;;;;;;;;;;;;;;;17.99;68.30;95894.06;5087291;28;20424;-82
2021/07/24 03:56:15;;;;;;;;;;;;;;;17.98;68.63;95905.75;5065632;28;20008;-80
2021/07/24 03:58:46;;;;;;;;;;;;;;;17.97;68.78;95899.66;5086516;28;20317;-80
2021/07/24 04:01:12;;;;;;;;;;;;;;;17.98;68.46;95895.16;5110495;28;19988;-80
2021/07/24 04:03:38;;;;;;;;;;;;;;;17.96;68.67;95895.44;5106557;28;19965;-80
2021/07/24 04:06:06;;;;;;;;;;;;;;;17.98;68.60;95911.84;5103797;28;20309;-80
2021/07/24 04:08:32;;;;;;;;;;;;;;;17.97;68.56;95918.22;5104998;28;19975;-80
2021/07/24 04:10:58;;;;;;;;;;;;;;;17.97;68.88;95914.78;5063271;28;19969;-80
2021/07/24 04:13:24;;;;;;;;;;;;;;;17.90;68.59;95904.50;5103300;28;20344;-80
2021/07/24 04:15:50;;;;;;;;;;;;;;;17.85;68.76;95897.38;5061382;28;19996;-80
2021/07/24 04:18:23;;;;;;;;;;;;;;;17.86;68.93;95900.81;5087989;28;20287;-80
2021/07/24 04:20:49;;;;;;;;;;;;;;;17.88;68.65;95908.50;5067112;28;20054;-80
2021/07/24 04:23:15;;;;;;;;;;;;;;;17.89;68.40;95908.22;5103208;28;19984;-80
2021/07/24 04:25:41;;;;;;;;;;;;;;;17.90;68.41;95917.75;5085300;28;20060;-80
2021/07/24 04:28:07;;;;;;;;;;;;;;;17.91;68.96;95926.50;5088118;28;20492;-80
2021/07/24 04:30:34;;;;;;;;;;;;;;;17.92;69.29;95938.72;5089453;28;19972;-80
2021/07/24 04:33:00;;;;;;;;;;;;;;;17.92;69.22;95950.09;5082470;28;19976;-80
2021/07/24 04:35:26;;;;;;;;;;;;;;;17.93;68.63;95956.19;5083535;28;19977;-81
2021/07/24 04:37:51;;;;;;;;;;;;;;;17.94;68.58;95963.88;5046732;28;19972;-80
2021/07/24 04:40:18;;;;;;;;;;;;;;;17.93;69.74;95953.53;5065558;28;20004;-80
2021/07/24 04:42:44;;;;;;;;;;;;;;;17.89;68.55;95941.91;5055789;28;20417;-80
2021/07/24 04:45:10;;;;;;;;;;;;;;;17.89;68.27;95940.06;5085378;28;19972;-80
2021/07/24 04:47:36;;;;;;;;;;;;;;;17.91;69.01;95943.22;5085593;28;20451;-80
2021/07/24 04:50:02;;;;;;;;;;;;;;;17.94;69.30;95939.22;5082182;28;19980;-80
2021/07/24 04:52:29;;;;;;;;;;;;;;;17.97;68.72;95947.41;5085738;28;20336;-80
2021/07/24 04:54:58;;;;;;;;;;;;;;;17.99;69.46;95963.06;5103036;28;19972;-80
2021/07/24 04:57:24;;;;;;;;;;;;;;;18.02;67.98;95955.34;5085647;28;19972;-81
2021/07/24 04:59:51;;;;;;;;;;;;;;;18.07;68.37;95962.47;5069528;28;19969;-80
2021/07/24 05:02:18;;;;;;;;;;;;;;;18.13;67.91;95932.16;5077186;28;20329;-80
2021/07/24 05:04:45;;;;;;;;;;;;;;;18.25;67.77;95950.38;5082788;28;19964;-80
2021/07/24 05:07:11;;;;;;;;;;;;;;;18.36;67.50;95943.91;5085245;28;19969;-80
2021/07/24 05:09:38;;;;;;;;;;;;;;;18.43;66.29;95917.03;5086837;28;19965;-80
2021/07/24 05:12:04;;;;;;;;;;;;;;;18.51;67.05;95944.84;5088303;28;19975;-80
2021/07/24 05:14:30;;;;;;;;;;;;;;;18.63;67.23;95958.53;5097041;28;19988;-81
2021/07/24 05:17:06;;;;;;;;;;;;;;;18.85;66.95;95945.56;5068194;28;20040;-80
2021/07/24 05:19:35;;;;;;;;;;;;;;;19.19;66.97;95949.97;5092101;28;19972;-79
2021/07/24 05:22:01;;;;;;;;;;;;;;;19.37;65.59;95963.56;5082476;28;19984;-80
2021/07/24 05:24:26;;;;;;;;;;;;;;;19.38;65.37;95975.78;5070675;28;20005;-80
2021/07/24 05:26:52;;;;;;;;;;;;;;;19.25;65.80;95983.38;5106595;28;20125;-80
2021/07/24 05:29:18;;;;;;;;;;;;;;;19.13;65.96;95988.31;5093037;28;19972;-80
2021/07/24 05:31:45;;;;;;;;;;;;;;;19.00;66.82;96007.56;5069002;28;19975;-80
2021/07/24 05:34:11;;;;;;;;;;;;;;;18.92;66.84;96005.53;5101602;28;19979;-80
2021/07/24 05:36:37;;;;;;;;;;;;;;;18.82;66.90;95993.16;5093175;28;20420;-80
2021/07/24 05:39:03;;;;;;;;;;;;;;;18.76;67.74;95999.56;5055553;28;19972;-80
2021/07/24 05:41:28;;;;;;;;;;;;;;;18.74;68.24;96007.81;5085223;28;19988;-80
2021/07/24 05:43:54;;;;;;;;;;;;;;;18.72;68.64;96017.94;5089884;28;19969;-79
2021/07/24 05:46:20;;;;;;;;;;;;;;;18.71;69.56;96021.66;5091022;28;19979;-80
2021/07/24 05:48:46;;;;;;;;;;;;;;;18.69;68.89;96018.50;5050909;28;20062;-79
2021/07/24 05:51:12;;;;;;;;;;;;;;;18.69;68.81;96018.50;5083218;28;19998;-80
2021/07/24 05:53:38;;;;;;;;;;;;;;;18.65;68.75;96028.88;5069273;28;19969;-80
2021/07/24 05:56:04;;;;;;;;;;;;;;;18.67;69.33;96025.94;5090058;28;20017;-80
2021/07/24 05:58:30;;;;;;;;;;;;;;;18.71;69.46;96037.59;5090960;28;19975;-80
2021/07/24 06:00:57;;;;;;;;;;;;;;;18.73;69.46;96051.41;5087664;28;19999;-80
2021/07/24 06:03:23;;;;;;;;;;;;;;;18.76;69.41;96063.31;5102510;28;20417;-80
2021/07/24 06:05:49;;;;;;;;;;;;;;;18.78;69.55;96053.22;5087597;28;20018;-80
2021/07/24 06:08:15;;;;;;;;;;;;;;;18.80;68.87;96067.03;5073084;28;19968;-80
2021/07/24 06:10:41;;;;;;;;;;;;;;;18.81;69.13;96060.63;5107186;28;19972;-80
2021/07/24 06:13:07;;;;;;;;;;;;;;;18.85;69.16;96070.41;5064776;28;19977;-80
2021/07/24 06:15:33;;;;;;;;;;;;;;;18.90;69.41;96068.78;5091969;28;20037;-80
2021/07/24 06:17:59;;;;;;;;;;;;;;;18.90;69.06;96066.94;5089154;28;20056;-80
2021/07/24 06:20:24;;;;;;;;;;;;;;;18.90;69.16;96056.31;5085621;28;20458;-80
2021/07/24 06:22:50;;;;;;;;;;;;;;;18.93;69.24;96055.75;5071965;28;20097;-78
2021/07/24 06:25:16;;;;;;;;;;;;;;;18.96;69.55;96036.59;5087251;28;19976;-79
2021/07/24 06:27:42;;;;;;;;;;;;;;;18.99;69.24;96025.41;5105282;28;19972;-78
2021/07/24 06:30:09;;;;;;;;;;;;;;;19.01;69.50;96023.25;5111192;28;20416;-79
2021/07/24 06:32:35;;;;;;;;;;;;;;;19.06;69.36;96035.69;5066418;28;20317;-79
2021/07/24 06:35:01;;;;;;;;;;;;;;;19.12;69.40;96044.41;5101940;28;19979;-80
2021/07/24 06:37:27;;;;;;;;;;;;;;;19.18;69.14;96049.38;5111919;28;20018;-80
2021/07/24 06:39:54;;;;;;;;;;;;;;;19.29;68.64;96031.44;5087114;28;19968;-80
2021/07/24 06:42:20;;;;;;;;;;;;;;;19.42;68.80;96028.13;5090608;28;19988;-80
2021/07/24 06:44:46;;;;;;;;;;;;;;;19.54;68.35;96025.03;5106879;28;19974;-78
2021/07/24 06:47:13;;;;;;;;;;;;;;;19.61;68.64;96022.03;5100652;28;19995;-78
2021/07/24 06:49:38;;;;;;;;;;;;;;;19.62;68.20;96020.97;5108193;28;19972;-77
2021/07/24 06:52:04;;;;;;;;;;;;;;;19.63;68.27;96026.00;5069995;28;20433;-77
2021/07/24 06:54:30;;;;;;;;;;;;;;;19.61;67.51;96043.28;5069104;28;20026;-78
2021/07/24 06:56:56;;;;;;;;;;;;;;;19.59;68.69;96054.25;5084451;28;20064;-77
2021/07/24 06:59:22;;;;;;;;;;;;;;;19.54;68.61;96046.31;5107705;28;20405;-78
2021/07/24 07:01:48;;;;;;;;;;;;;;;19.47;68.19;96049.31;5088801;28;19984;-77
2021/07/24 07:04:14;;;;;;;;;;;;;;;19.47;68.81;96072.47;5085612;28;19968;-78
2021/07/24 07:06:41;;;;;;;;;;;;;;;19.42;69.22;96085.81;5086780;28;20393;-77
2021/07/24 07:09:06;;;;;;;;;;;;;;;19.34;70.45;96094.41;5105882;28;19968;-78
2021/07/24 07:11:32;;;;;;;;;;;;;;;19.21;69.22;96094.03;5105253;28;20158;-77
2021/07/24 07:13:58;;;;;;;;;;;;;;;19.15;70.76;96103.13;5104725;28;20066;-78
2021/07/24 07:16:26;;;;;;;;;;;;;;;19.16;72.70;96111.88;5085165;28;20003;-77
2021/07/24 07:18:52;;;;;;;;;;;;;;;19.17;72.48;96116.09;5066504;28;19973;-78
2021/07/24 07:21:17;;;;;;;;;;;;;;;19.23;71.35;96099.03;5101405;28;19988;-77
2021/07/24 07:23:43;;;;;;;;;;;;;;;19.29;71.86;96113.06;5106661;28;20000;-77
2021/07/24 07:26:11;;;;;;;;;;;;;;;19.39;71.71;96129.72;5104627;28;20022;-77
2021/07/24 07:28:37;;;;;;;;;;;;;;;19.48;71.54;96129.88;5086770;28;20375;-78
2021/07/24 07:31:04;;;;;;;;;;;;;;;19.51;73.21;96133.84;5106209;28;19972;-79
2021/07/24 07:33:29;;;;;;;;;;;;;;;19.57;71.27;96122.91;5064345;28;20075;-77
2021/07/24 07:35:55;;;;;;;;;;;;;;;19.64;72.29;96098.59;5086768;28;19976;-77
2021/07/24 07:38:22;;;;;;;;;;;;;;;19.68;70.56;96097.75;5108341;28;20060;-77
2021/07/24 07:40:47;;;;;;;;;;;;;;;19.73;71.19;96118.19;5108680;28;20459;-77
2021/07/24 07:43:13;;;;;;;;;;;;;;;19.77;70.23;96103.25;5101369;28;19972;-78
2021/07/24 07:45:40;;;;;;;;;;;;;;;19.80;71.01;96121.31;5102128;28;19972;-78
2021/07/24 07:48:07;;;;;;;;;;;;;;;19.80;71.74;96100.03;5091815;28;20383;-78
2021/07/24 07:50:33;;;;;;;;;;;;;;;19.81;70.35;96095.50;5084048;28;20420;-77
2021/07/24 07:52:59;;;;;;;;;;;;;;;19.83;73.97;96094.13;5083302;28;20454;-77
2021/07/24 07:55:25;;;;;;;;;;;;;;;19.83;73.39;96040.13;5089203;28;19980;-76
2021/07/24 07:57:51;;;;;;;;;;;;;;;19.77;73.49;95986.19;5085355;28;19968;-76
2021/07/24 08:00:17;;;;;;;;;;;;;;;19.72;73.13;95964.19;5065285;28;19976;-78
2021/07/24 08:02:43;;;;;;;;;;;;;;;19.74;73.62;95959.34;5085538;28;19973;-77
2021/07/24 08:05:09;;;;;;;;;;;;;;;19.77;72.40;95967.56;5085362;28;20064;-77
2021/07/24 08:07:34;;;;;;;;;;;;;;;19.83;71.85;95958.44;5086067;28;19976;-77
2021/07/24 08:10:00;;;;;;;;;;;;;;;19.91;71.62;95940.22;5084267;28;19972;-77
2021/07/24 08:12:26;;;;;;;;;;;;;;;19.94;70.73;95935.13;5101203;28;19984;-77
2021/07/24 08:14:52;;;;;;;;;;;;;;;20.02;72.52;95936.34;5087956;28;19969;-77
2021/07/24 08:17:19;;;;;;;;;;;;;;;20.11;72.68;95947.09;5088140;28;20073;-77
2021/07/24 08:19:45;;;;;;;;;;;;;;;20.19;72.06;95938.47;5082662;28;19979;-77
2021/07/24 08:22:11;;;;;;;;;;;;;;;20.32;71.82;95945.69;5104726;28;19988;-77
2021/07/24 08:24:37;;;;;;;;;;;;;;;20.53;72.62;95945.34;5104805;28;20067;-77
2021/07/24 08:27:03;;;;;;;;;;;;;;;20.76;73.58;95944.41;5088658;28;19972;-77
2021/07/24 08:29:29;;;;;;;;;;;;;;;21.00;72.15;95944.22;5080423;28;20462;-77
2021/07/24 08:31:56;;;;;;;;;;;;;;;21.21;69.14;95951.81;5084841;28;19970;-77
2021/07/24 08:34:22;;;;;;;;;;;;;;;21.41;68.64;95959.38;5091643;28;19972;-76
2021/07/24 08:36:48;;;;;;;;;;;;;;;21.60;69.05;95955.81;5082133;28;20018;-77
2021/07/24 08:39:14;;;;;;;;;;;;;;;21.66;66.64;95950.06;5094440;28;19973;-78
2021/07/24 08:41:41;;;;;;;;;;;;;;;21.68;69.32;95985.25;5081265;28;20016;-77
2021/07/24 08:44:09;;;;;;;;;;;;;;;21.75;66.31;95947.47;5085873;28;19984;-77
2021/07/24 08:46:35;;;;;;;;;;;;;;;21.85;67.18;95949.13;5106595;28;20336;-77
2021/07/24 08:49:01;;;;;;;;;;;;;;;21.99;67.93;95949.88;5103394;28;20015;-77
2021/07/24 08:51:30;;;;;;;;;;;;;;;22.07;67.60;95954.47;5105836;28;20011;-77
2021/07/24 08:53:56;;;;;;;;;;;;;;;22.07;65.92;95951.03;5085150;28;19968;-77
2021/07/24 08:56:24;;;;;;;;;;;;;;;22.03;67.23;95953.50;5105148;28;20429;-76
2021/07/24 08:58:55;;;;;;;;;;;;;;;22.06;65.65;95955.56;5108369;28;19975;-77
2021/07/24 09:01:21;;;;;;;;;;;;;;;22.18;66.24;95963.03;5102237;28;19984;-78
2021/07/24 09:03:48;;;;;;;;;;;;;;;22.35;65.71;95974.97;5110717;28;19975;-77
2021/07/24 09:06:23;;;;;;;;;;;;;;;22.59;63.32;95963.91;5108063;28;19969;-77
2021/07/24 09:08:50;;;;;;;;;;;;;;;22.97;63.27;95979.50;5068956;28;19971;-77
2021/07/24 09:11:17;;;;;;;;;;;;;;;23.36;60.41;95961.88;5108123;28;19968;-77
2021/07/24 09:13:43;;;;;;;;;;;;;;;23.68;59.85;95958.75;5093357;28;20417;-77
2021/07/24 09:16:09;;;;;;;;;;;;;;;23.88;56.73;95940.56;5103450;28;20031;-77
2021/07/24 09:18:36;;;;;;;;;;;;;;;24.02;58.00;95951.88;5083813;28;19972;-78
2021/07/24 09:21:03;;;;;;;;;;;;;;;24.10;58.08;95952.97;5086696;28;19988;-77
2021/07/24 09:23:35;;;;;;;;;;;;;;;24.12;56.74;95934.69;5104755;28;19964;-77
2021/07/24 09:26:05;;;;;;;;;;;;;;;24.24;57.12;95947.44;5108450;28;20344;-77
2021/07/24 09:28:32;;;;;;;;;;;;;;;24.36;56.64;95952.13;5090228;28;19974;-77
2021/07/24 09:31:18;;;;;;;;;;;;;;;24.55;55.72;95938.41;5071510;28;19979;-77
2021/07/24 09:33:51;;;;;;;;;;;;;;;24.78;54.30;95915.63;5079449;28;19968;-77
2021/07/24 09:36:29;;;;;;;;;;;;;;;24.84;52.26;95898.25;5066051;28;20355;-77
2021/07/24 09:39:05;;;;;;;;;;;;;;;24.89;55.17;95934.81;5090867;28;19979;-77
2021/07/24 09:41:31;;;;;;;;;;;;;;;24.89;55.09;95937.50;5107238;28;19986;-77
2021/07/24 09:43:57;;;;;;;;;;;;;;;24.82;52.32;95905.03;5106237;28;20045;-78
2021/07/24 09:46:23;;;;;;;;;;;;;;;24.74;53.17;95916.56;5102427;28;19968;-76
2021/07/24 09:48:53;;;;;;;;;;;;;;;24.86;51.45;95909.44;5084254;28;19979;-76
2021/07/24 09:51:32;;;;;;;;;;;;;;;25.16;50.90;95897.91;5090263;28;20431;-76
2021/07/24 09:53:58;;;;;;;;;;;;;;;25.51;51.66;95910.03;5105631;28;19976;-76
2021/07/24 09:56:41;;;;;;;;;;;;;;;25.75;48.78;95881.72;5110699;28;20342;-77
2021/07/24 09:59:16;;;;;;;;;;;;;;;25.81;47.05;95879.63;5098227;28;19978;-77
2021/07/24 10:01:43;;;;;;;;;;;;;;;25.76;48.61;95896.69;5065938;28;19987;-76
2021/07/24 10:04:10;;;;;;;;;;;;;;;25.88;47.97;95894.06;5084759;28;20352;-77
2021/07/24 10:06:38;;;;;;;;;;;;;;;25.89;49.26;95905.63;5086472;28;20348;-76
2021/07/24 10:09:03;;;;;;;;;;;;;;;25.96;46.48;95887.09;5087416;28;19969;-76
2021/07/24 10:11:29;;;;;;;;;;;;;;;26.01;47.86;95902.97;5105410;28;20014;-77
2021/07/24 10:13:56;;;;;;;;;;;;;;;26.12;48.63;95920.28;5089055;28;20408;-76
2021/07/24 10:16:24;;;;;;;;;;;;;;;26.22;45.79;95907.53;5106623;28;19996;-76
2021/07/24 10:18:53;;;;;;;;;;;;;;;26.28;44.68;95903.53;5068559;28;19972;-76
2021/07/24 10:21:19;;;;;;;;;;;;;;;26.46;46.13;95915.66;5108216;28;20058;-77
2021/07/24 10:23:45;;;;;;;;;;;;;;;26.49;46.07;95919.59;5088107;28;20421;-76
2021/07/24 10:26:11;;;;;;;;;;;;;;;26.50;44.55;95905.81;5104614;28;19968;-77
2021/07/24 10:28:55;;;;;;;;;;;;;;;26.66;45.21;95908.66;5103592;28;19975;-77
2021/07/24 10:31:38;;;;;;;;;;;;;;;26.63;45.05;95922.00;5084134;28;19969;-77
2021/07/24 10:34:05;;;;;;;;;;;;;;;26.63;43.59;95906.66;5086993;28;19968;-78
2021/07/24 10:36:36;;;;;;;;;;;;;;;26.79;44.31;95922.13;5103355;28;19972;-78
2021/07/24 10:39:06;;;;;;;;;;;;;;;26.92;45.48;95921.78;5086297;28;19969;-77
2021/07/24 10:41:32;;;;;;;;;;;;;;;27.17;45.49;95924.47;5111943;28;20347;-78
2021/07/24 10:44:05;;;;;;;;;;;;;;;27.18;42.66;95911.81;5063522;28;19995;-78
2021/07/24 10:46:43;;;;;;;;;;;;;;;27.21;43.97;95914.59;5068410;28;19968;-78
2021/07/24 10:49:19;;;;;;;;;;;;;;;27.23;44.20;95912.38;5062774;28;20361;-78
2021/07/24 10:51:54;;;;;;;;;;;;;;;26.96;43.61;95896.91;5097967;28;20055;-78
2021/07/24 10:54:20;;;;;;;;;;;;;;;26.83;45.56;95914.94;5094823;28;20433;-78
2021/07/24 10:56:47;;;;;;;;;;;;;;;26.83;44.54;95910.34;5077604;28;19983;-78
2021/07/24 10:59:13;;;;;;;;;;;;;;;26.79;44.10;95917.50;5082506;28;19972;-78
2021/07/24 11:01:49;;;;;;;;;;;;;;;26.70;44.92;95930.28;5104302;28;20432;-78
2021/07/24 11:04:34;;;;;;;;;;;;;;;26.55;45.22;95942.47;5107108;28;20439;-78
2021/07/24 11:07:19;;;;;;;;;;;;;;;26.44;45.36;95930.56;5092859;28;19975;-79
2021/07/24 11:09:51;;;;;;;;;;;;;;;26.35;45.90;95936.00;5081960;28;19975;-78
2021/07/24 11:12:17;;;;;;;;;;;;;;;26.20;44.86;95920.53;5098766;28;19979;-78
2021/07/24 11:14:45;;;;;;;;;;;;;;;26.09;45.73;95920.94;5108493;28;19965;-78
2021/07/24 11:17:12;;;;;;;;;;;;;;;25.95;45.93;95920.44;5091804;28;20451;-77
2021/07/24 11:19:37;;;;;;;;;;;;;;;25.83;46.04;95912.28;5083496;28;19983;-78
2021/07/24 11:22:07;;;;;;;;;;;;;;;25.67;46.67;95917.47;5101089;28;19992;-78
2021/07/24 11:24:32;;;;;;;;;;;;;;;25.57;47.25;95923.25;5108831;28;19964;-77
2021/07/24 11:26:58;;;;;;;;;;;;;;;25.49;47.40;95912.25;5109725;28;20030;-77
2021/07/24 11:29:24;;;;;;;;;;;;;;;25.46;47.92;95922.84;5099098;28;19964;-78
2021/07/24 11:31:51;;;;;;;;;;;;;;;25.36;47.36;95913.28;5082956;28;19980;-77
2021/07/24 11:34:21;;;;;;;;;;;;;;;25.33;48.12;95922.00;5110427;28;20399;-78
2021/07/24 11:36:51;;;;;;;;;;;;;;;25.34;48.65;95922.78;5109004;28;19968;-77
2021/07/24 11:39:22;;;;;;;;;;;;;;;25.38;48.45;95924.47;5099183;28;19971;-78
2021/07/24 11:41:48;;;;;;;;;;;;;;;25.54;49.06;95929.28;5105112;28;20011;-77
2021/07/24 11:44:22;;;;;;;;;;;;;;;25.73;48.56;95918.84;5086119;28;19972;-78
2021/07/24 11:47:01;;;;;;;;;;;;;;;26.03;47.79;95906.13;5104725;28;19972;-77
2021/07/24 11:49:28;;;;;;;;;;;;;;;26.29;47.77;95889.75;5106882;28;20424;-78
2021/07/24 11:51:54;;;;;;;;;;;;;;;26.45;47.52;95892.56;5085684;28;19965;-78
2021/07/24 11:54:30;;;;;;;;;;;;;;;26.51;47.19;95882.41;5084739;28;19975;-78
2021/07/24 11:56:56;;;;;;;;;;;;;;;26.56;46.66;95886.75;5088042;28;19968;-78
2021/07/24 11:59:22;;;;;;;;;;;;;;;26.54;45.76;95873.66;5102819;28;20014;-78
2021/07/24 12:01:49;;;;;;;;;;;;;;;26.54;46.09;95884.41;5103169;28;20459;-77
2021/07/24 12:04:17;;;;;;;;;;;;;;;26.50;45.47;95873.56;5103539;28;19968;-78
2021/07/24 12:07:09;;;;;;;;;;;;;;;26.50;46.82;95887.00;5103581;28;20420;-78
2021/07/24 12:09:35;;;;;;;;;;;;;;;26.77;45.52;95873.25;5092299;28;19968;-78
2021/07/24 12:12:01;;;;;;;;;;;;;;;26.88;44.64;95869.00;5100624;28;19972;-78
2021/07/24 12:14:28;;;;;;;;;;;;;;;27.04;44.51;95875.25;5086673;28;20156;-78
2021/07/24 12:17:04;;;;;;;;;;;;;;;27.38;45.72;95875.09;5107374;28;20003;-78
2021/07/24 12:19:39;;;;;;;;;;;;;;;27.42;43.50;95879.47;5079841;28;19979;-78
2021/07/24 12:22:11;;;;;;;;;;;;;;;27.38;43.08;95862.41;5107393;28;19984;-78
2021/07/24 12:24:37;;;;;;;;;;;;;;;27.27;44.96;95878.25;5106731;28;20413;-78
2021/07/24 12:27:11;;;;;;;;;;;;;;;27.34;44.94;95872.34;5086354;28;20021;-78
2021/07/24 12:29:55;;;;;;;;;;;;;;;27.28;45.16;95874.47;5099074;28;19972;-78
2021/07/24 12:32:22;;;;;;;;;;;;;;;27.13;42.95;95849.00;5100580;28;19966;-78
2021/07/24 12:34:50;;;;;;;;;;;;;;;26.82;44.31;95859.59;5087975;28;19965;-78
2021/07/24 12:37:29;;;;;;;;;;;;;;;26.65;45.47;95858.69;5083215;28;19968;-78
2021/07/24 12:39:57;;;;;;;;;;;;;;;26.60;45.70;95864.28;5079959;28;19973;-78
2021/07/24 12:42:34;;;;;;;;;;;;;;;26.53;45.51;95866.72;5107364;28;19980;-78
2021/07/24 12:45:00;;;;;;;;;;;;;;;26.32;45.22;95848.75;5107480;28;19971;-78
2021/07/24 12:47:33;;;;;;;;;;;;;;;26.12;45.01;95839.66;5104940;28;19972;-77
2021/07/24 12:50:11;;;;;;;;;;;;;;;25.99;46.61;95846.09;5097487;28;20343;-78
2021/07/24 12:52:44;;;;;;;;;;;;;;;25.97;47.44;95856.41;5106910;28;19964;-78